Izumo Princess — SXMB — position and weather

sailwx.info

Track history (hours):
 
Tides and Currents Weather Stations Pressure Air Temp Water Temp Dewpoint Dewpoint Depression Visibility Wind Speed Wind Dir Waves Ship Positions

Izumo Princess

Last reported at 2015-Mar-31 12:30 UTC. Time now 2015-Apr-01 09:27 UTC.
Position N 43°43' E 035°20'.

Length 229 m; draft 8.2 m.

Type: Tanker. MMSI: 240611000.

Date/timePositionNaut miles runAvg speedWind from/ knotsBaromVisibWave heightAir tempDewpointWater temp
2015-Mar-31 12:30N 43°43' E 035°20'11 9.8
2015-Mar-31 11:24N 43°39' E 035°06'27910.0
2015-Mar-30 07:33N 41°28' E 029°32'38 9.4
2015-Mar-30 03:33N 40°59' E 028°60'10 9.6
2015-Mar-30 02:32N 40°49' E 028°59'6 6.4
2015-Mar-30 01:33N 40°43' E 028°57'0 0.3
2015-Mar-30 00:30N 40°44' E 028°57'0 0.2
2015-Mar-29 23:33N 40°44' E 028°56'0 0.2
2015-Mar-29 22:33N 40°44' E 028°56'0 0.3
2015-Mar-29 21:30N 40°44' E 028°56'2 2.0
2015-Mar-29 20:32N 40°42' E 028°56'2 1.7
2015-Mar-29 19:33N 40°40' E 028°55'0 0.4
2015-Mar-29 18:33N 40°41' E 028°56'0 0.3
2015-Mar-29 17:33N 40°41' E 028°56'0 0.2
2015-Mar-29 16:33N 40°41' E 028°56'0 0.3
2015-Mar-29 15:33N 40°42' E 028°56'0 0.4
2015-Mar-29 14:33N 40°42' E 028°56'0 0.4
2015-Mar-29 13:32N 40°42' E 028°56'0 0.4
2015-Mar-29 12:33N 40°43' E 028°56'0 0.5
2015-Mar-29 11:32N 40°43' E 028°56'1 0.5
2015-Mar-29 10:33N 40°44' E 028°56'1 0.6
2015-Mar-29 09:33N 40°44' E 028°56'1 0.7
2015-Mar-29 08:33N 40°45' E 028°56'1 0.6
2015-Mar-29 07:33N 40°46' E 028°56'1 0.6
2015-Mar-29 06:33N 40°46' E 028°56'1 0.6
2015-Mar-29 05:33N 40°47' E 028°57'5 4.7
2015-Mar-29 04:33N 40°52' E 028°57'6 5.6
2015-Mar-29 03:33N 40°57' E 028°59'9 8.8
2015-Mar-29 02:33N 40°51' E 028°51'1 1.0
2015-Mar-29 01:31N 40°50' E 028°51'0 0.5
2015-Mar-29 00:32N 40°49' E 028°51'1 0.7
2015-Mar-28 23:31N 40°48' E 028°50'1 0.8
2015-Mar-28 22:32N 40°48' E 028°50'0 0.5
2015-Mar-28 21:33N 40°47' E 028°49'0 0.4
2015-Mar-28 20:31N 40°47' E 028°49'0 0.4
2015-Mar-28 19:32N 40°47' E 028°48'0 0.3
2015-Mar-28 18:32N 40°47' E 028°48'0 0.1
2015-Mar-28 17:33N 40°47' E 028°48'0 0.2
2015-Mar-28 16:33N 40°47' E 028°48'  
Track history (hours):
 
Tides and Currents Weather Stations Pressure Air Temp Water Temp Dewpoint Dewpoint Depression Visibility Wind Speed Wind Dir Waves Ship Positions

Izumo Princess

Last reported at 2015-Mar-31 12:30 UTC. Time now 2015-Apr-01 09:27 UTC.
Position N 43°43' E 035°20'.

Length 229 m; draft 8.2 m.

Type: Tanker. MMSI: 240611000.

Date/timePositionNaut miles runAvg speedWind from/ knotsBaromVisibWave heightAir tempDewpointWater temp
2015-Mar-31 12:30N 43°43' E 035°20'11 9.8
2015-Mar-31 11:24N 43°39' E 035°06'27910.0
2015-Mar-30 07:33N 41°28' E 029°32'38 9.4
2015-Mar-30 03:33N 40°59' E 028°60'10 9.6
2015-Mar-30 02:32N 40°49' E 028°59'6 6.4
2015-Mar-30 01:33N 40°43' E 028°57'0 0.3
2015-Mar-30 00:30N 40°44' E 028°57'0 0.2
2015-Mar-29 23:33N 40°44' E 028°56'0 0.2
2015-Mar-29 22:33N 40°44' E 028°56'0 0.3
2015-Mar-29 21:30N 40°44' E 028°56'2 2.0
2015-Mar-29 20:32N 40°42' E 028°56'2 1.7
2015-Mar-29 19:33N 40°40' E 028°55'0 0.4
2015-Mar-29 18:33N 40°41' E 028°56'0 0.3
2015-Mar-29 17:33N 40°41' E 028°56'0 0.2
2015-Mar-29 16:33N 40°41' E 028°56'0 0.3
2015-Mar-29 15:33N 40°42' E 028°56'0 0.4
2015-Mar-29 14:33N 40°42' E 028°56'0 0.4
2015-Mar-29 13:32N 40°42' E 028°56'0 0.4
2015-Mar-29 12:33N 40°43' E 028°56'0 0.5
2015-Mar-29 11:32N 40°43' E 028°56'1 0.5
2015-Mar-29 10:33N 40°44' E 028°56'1 0.6
2015-Mar-29 09:33N 40°44' E 028°56'1 0.7
2015-Mar-29 08:33N 40°45' E 028°56'1 0.6
2015-Mar-29 07:33N 40°46' E 028°56'1 0.6
2015-Mar-29 06:33N 40°46' E 028°56'1 0.6
2015-Mar-29 05:33N 40°47' E 028°57'5 4.7
2015-Mar-29 04:33N 40°52' E 028°57'6 5.6
2015-Mar-29 03:33N 40°57' E 028°59'9 8.8
2015-Mar-29 02:33N 40°51' E 028°51'1 1.0
2015-Mar-29 01:31N 40°50' E 028°51'0 0.5
2015-Mar-29 00:32N 40°49' E 028°51'1 0.7
2015-Mar-28 23:31N 40°48' E 028°50'1 0.8
2015-Mar-28 22:32N 40°48' E 028°50'0 0.5
2015-Mar-28 21:33N 40°47' E 028°49'0 0.4
2015-Mar-28 20:31N 40°47' E 028°49'0 0.4
2015-Mar-28 19:32N 40°47' E 028°48'0 0.3
2015-Mar-28 18:32N 40°47' E 028°48'0 0.1
2015-Mar-28 17:33N 40°47' E 028°48'0 0.2
2015-Mar-28 16:33N 40°47' E 028°48'  

Dump ship's entire track history